createdAt,value
2022-11-15T00:02:09.850Z,29.17
2022-11-15T00:04:36.528Z,28.73
2022-11-15T00:07:03.202Z,36.58
2022-11-15T00:09:29.888Z,25.55
2022-11-15T00:11:56.526Z,26.55
2022-11-15T00:14:23.113Z,25.00
2022-11-15T00:16:49.811Z,22.95
2022-11-15T00:19:16.606Z,31.27
2022-11-15T00:21:43.296Z,17.52
2022-11-15T00:24:10.176Z,19.17
2022-11-15T00:26:36.778Z,30.67
2022-11-15T00:29:03.445Z,40.83
2022-11-15T00:31:30.166Z,41.97
2022-11-15T00:33:56.828Z,39.80
2022-11-15T00:36:23.417Z,52.80
2022-11-15T00:38:50.191Z,60.38
2022-11-15T00:41:16.816Z,15.77
2022-11-15T00:43:44.706Z,39.38
2022-11-15T00:46:11.545Z,22.77
2022-11-15T00:48:38.446Z,20.63
2022-11-15T00:51:05.123Z,22.88
2022-11-15T00:53:32.066Z,31.45
2022-11-15T00:55:59.242Z,15.32
2022-11-15T00:58:25.802Z,31.42
2022-11-15T01:00:52.515Z,21.25
2022-11-15T01:03:19.223Z,47.83
2022-11-15T01:05:45.902Z,10.68
2022-11-15T01:08:16.330Z,22.15
2022-11-15T01:10:43.126Z,25.48
2022-11-15T01:13:09.875Z,15.98
2022-11-15T01:15:41.002Z,22.80
2022-11-15T01:18:07.784Z,20.02
2022-11-15T01:20:34.376Z,16.10
2022-11-15T01:23:00.983Z,15.45
2022-11-15T01:25:27.662Z,11.77
2022-11-15T01:27:54.371Z,32.90
2022-11-15T01:30:20.946Z,13.73
2022-11-15T01:32:47.676Z,25.90
2022-11-15T01:35:14.368Z,16.48
2022-11-15T01:37:40.983Z,27.35
2022-11-15T01:40:08.099Z,34.53
2022-11-15T01:42:34.705Z,16.00
2022-11-15T01:45:01.364Z,22.60
2022-11-15T01:47:33.268Z,21.40
2022-11-15T01:50:28.858Z,33.63
2022-11-15T01:52:55.668Z,20.42
2022-11-15T01:55:24.133Z,18.02
2022-11-15T01:57:52.997Z,20.33
2022-11-15T02:00:19.625Z,31.33
2022-11-15T02:02:46.342Z,20.02
2022-11-15T02:05:13.018Z,29.45
2022-11-15T02:07:39.702Z,30.05
2022-11-15T02:10:11.683Z,31.80
2022-11-15T02:12:38.313Z,36.83
2022-11-15T02:15:05.813Z,30.92
2022-11-15T02:18:03.597Z,30.15
2022-11-15T02:20:44.490Z,16.67
2022-11-15T02:23:39.224Z,27.15
2022-11-15T02:26:08.934Z,13.90
2022-11-15T02:28:41.439Z,20.85
2022-11-15T02:31:19.813Z,12.68
2022-11-15T02:34:05.747Z,18.75
2022-11-15T02:36:41.234Z,28.48
2022-11-15T02:39:34.297Z,16.25
2022-11-15T02:42:28.473Z,34.60
2022-11-15T02:44:55.070Z,18.38
2022-11-15T02:47:21.743Z,22.90
2022-11-15T02:49:50.249Z,20.90
2022-11-15T02:52:28.899Z,18.33
2022-11-15T02:54:59.989Z,13.50
2022-11-15T02:58:19.102Z,17.02
2022-11-15T03:00:51.053Z,19.17
2022-11-15T03:03:28.992Z,14.88
2022-11-15T03:06:05.372Z,16.00
2022-11-15T03:08:38.630Z,15.75
2022-11-15T03:11:12.593Z,20.10
2022-11-15T03:13:57.805Z,17.13
2022-11-15T03:16:27.490Z,13.73
2022-11-15T03:19:06.673Z,16.98
2022-11-15T03:21:33.394Z,21.17
2022-11-15T03:24:00.777Z,22.25
2022-11-15T03:26:27.405Z,22.00
2022-11-15T03:28:59.844Z,29.88
2022-11-15T03:31:50.521Z,20.23
2022-11-15T03:34:29.433Z,19.38
2022-11-15T03:36:56.139Z,17.15
2022-11-15T03:39:22.878Z,19.98
2022-11-15T03:41:54.149Z,14.85
2022-11-15T03:45:06.975Z,25.25
2022-11-15T03:47:37.731Z,35.45
2022-11-15T03:50:08.517Z,18.17
2022-11-15T03:52:35.262Z,29.83
2022-11-15T03:55:03.313Z,32.85
2022-11-15T03:57:29.949Z,40.97
2022-11-15T03:59:56.532Z,47.42
2022-11-15T04:02:23.126Z,45.67
2022-11-15T04:04:49.738Z,36.75
2022-11-15T04:07:16.455Z,31.90
2022-11-15T04:10:03.461Z,46.35
2022-11-15T04:12:34.144Z,38.17
2022-11-15T04:15:08.355Z,55.42
2022-11-15T04:17:41.484Z,56.92
2022-11-15T04:20:29.364Z,52.70
2022-11-15T04:23:15.522Z,81.88
2022-11-15T04:25:42.737Z,33.15
2022-11-15T04:28:09.330Z,46.67
2022-11-15T04:30:35.903Z,42.70
2022-11-15T04:33:02.561Z,20.27
2022-11-15T04:35:29.248Z,23.58
2022-11-15T04:37:56.638Z,38.75
2022-11-15T04:40:23.230Z,23.80
2022-11-15T04:42:49.945Z,21.63
2022-11-15T04:45:16.763Z,22.52
2022-11-15T04:47:46.549Z,31.52
2022-11-15T04:50:14.433Z,24.65
2022-11-15T04:52:44.933Z,29.00
2022-11-15T04:55:11.893Z,25.75
2022-11-15T04:57:38.724Z,22.30
2022-11-15T05:00:06.500Z,19.73
2022-11-15T05:02:51.435Z,21.05
2022-11-15T05:05:18.077Z,22.75
2022-11-15T05:07:44.714Z,21.17
2022-11-15T05:10:11.526Z,18.50
2022-11-15T05:12:38.201Z,21.60
2022-11-15T05:15:05.313Z,28.90
2022-11-15T05:17:32.008Z,23.05
2022-11-15T05:19:58.729Z,21.27
2022-11-15T05:22:25.356Z,19.75
2022-11-15T05:24:52.023Z,50.15
2022-11-15T05:27:18.714Z,51.00
2022-11-15T05:29:45.350Z,26.70
2022-11-15T05:32:11.978Z,21.80
2022-11-15T05:34:38.587Z,32.83
2022-11-15T05:37:05.256Z,42.75
2022-11-15T05:39:31.877Z,47.35
2022-11-15T05:42:03.605Z,36.00
2022-11-15T05:44:30.192Z,38.30
2022-11-15T05:46:56.873Z,23.85
2022-11-15T05:49:25.605Z,26.85
2022-11-15T05:51:52.344Z,26.30
2022-11-15T05:54:19.001Z,24.52
2022-11-15T05:56:45.660Z,24.70
2022-11-15T05:59:12.267Z,16.42
2022-11-15T06:01:38.944Z,21.60
2022-11-15T06:04:05.690Z,22.58
2022-11-15T06:06:32.352Z,25.52
2022-11-15T06:08:59.036Z,22.38
2022-11-15T06:11:25.742Z,16.85
2022-11-15T06:13:52.414Z,27.60
2022-11-15T06:16:19.089Z,25.15
2022-11-15T06:18:45.840Z,26.02
2022-11-15T06:21:12.536Z,28.52
2022-11-15T06:23:39.150Z,23.63
2022-11-15T06:26:06.128Z,21.20
2022-11-15T06:28:33.064Z,28.27
2022-11-15T06:31:06.852Z,21.33
2022-11-15T06:33:34.087Z,17.40
2022-11-15T06:36:02.986Z,20.10
2022-11-15T06:38:29.656Z,17.02
2022-11-15T06:40:56.332Z,14.68
2022-11-15T06:43:23.021Z,13.75
2022-11-15T06:45:49.706Z,15.48
2022-11-15T06:48:16.398Z,25.90
2022-11-15T06:50:43.091Z,17.02
2022-11-15T06:53:09.787Z,20.80
2022-11-15T06:55:36.449Z,21.38
2022-11-15T06:58:03.119Z,13.52
2022-11-15T07:00:29.815Z,13.95
2022-11-15T07:02:56.558Z,12.77
2022-11-15T07:05:23.262Z,16.58
2022-11-15T07:07:54.317Z,28.15
2022-11-15T07:10:21.423Z,31.40
2022-11-15T07:12:49.761Z,30.95
2022-11-15T07:15:17.434Z,20.83
2022-11-15T07:17:44.127Z,17.08
2022-11-15T07:20:11.190Z,15.00
2022-11-15T07:22:37.969Z,18.83
2022-11-15T07:25:04.959Z,13.30
2022-11-15T07:27:32.016Z,12.18
2022-11-15T07:29:58.766Z,13.57
2022-11-15T07:32:25.347Z,13.13
2022-11-15T07:34:52.038Z,13.13
2022-11-15T07:37:18.682Z,12.23
2022-11-15T07:39:45.453Z,13.20
2022-11-15T07:42:30.681Z,11.57
2022-11-15T07:44:57.283Z,14.23
2022-11-15T07:47:23.986Z,12.13
2022-11-15T07:49:50.802Z,15.43
2022-11-15T07:52:17.477Z,13.23
2022-11-15T07:54:44.125Z,14.10
2022-11-15T07:57:11.074Z,12.93
2022-11-15T07:59:37.760Z,12.30
2022-11-15T08:02:04.457Z,18.98
2022-11-15T08:04:31.109Z,15.75
2022-11-15T08:06:58.357Z,17.88
2022-11-15T08:09:25.101Z,27.75
2022-11-15T08:11:51.758Z,20.58
2022-11-15T08:14:18.351Z,16.65
2022-11-15T08:16:45.016Z,19.25
2022-11-15T08:19:11.685Z,13.15
2022-11-15T08:21:38.389Z,15.38
2022-11-15T08:24:05.533Z,15.93
2022-11-15T08:26:32.257Z,15.65
2022-11-15T08:28:58.967Z,14.73
2022-11-15T08:31:25.731Z,15.27
2022-11-15T08:33:52.485Z,14.60
2022-11-15T08:36:19.089Z,14.05
2022-11-15T08:38:45.808Z,13.57
2022-11-15T08:41:14.900Z,16.63
2022-11-15T08:43:41.511Z,13.68
2022-11-15T08:46:10.078Z,14.57
2022-11-15T08:48:36.671Z,14.73
2022-11-15T08:51:03.483Z,14.48
2022-11-15T08:53:30.099Z,14.10
2022-11-15T08:55:56.782Z,14.52
2022-11-15T08:58:23.364Z,12.93
2022-11-15T09:00:50.050Z,12.38
2022-11-15T09:03:16.746Z,12.18
2022-11-15T09:05:43.889Z,13.60
2022-11-15T09:08:32.863Z,16.02
2022-11-15T09:10:57.292Z,15.18
2022-11-15T09:13:23.968Z,13.45
2022-11-15T09:15:50.645Z,14.25
2022-11-15T09:18:17.335Z,13.95
2022-11-15T09:20:43.957Z,15.15
2022-11-15T09:23:10.678Z,18.77
2022-11-15T09:25:37.351Z,14.88
2022-11-15T09:30:51.974Z,17.73
2022-11-15T09:33:18.762Z,11.63
2022-11-15T09:35:45.420Z,15.55
2022-11-15T09:38:12.030Z,12.68
2022-11-15T09:40:38.971Z,16.23
2022-11-15T09:43:32.234Z,14.95
2022-11-15T09:46:20.890Z,13.80
2022-11-15T09:48:58.717Z,13.57
2022-11-15T09:51:35.700Z,11.02
2022-11-15T09:56:50.984Z,10.65
2022-11-15T09:59:23.566Z,12.65
2022-11-15T10:01:57.007Z,10.52
2022-11-15T10:04:23.906Z,17.37
2022-11-15T10:07:19.929Z,13.40
2022-11-15T10:10:20.244Z,9.98
2022-11-15T10:12:48.632Z,12.20
2022-11-15T10:15:16.695Z,10.60
2022-11-15T10:18:07.837Z,11.70
2022-11-15T10:20:47.962Z,11.23
2022-11-15T10:23:16.957Z,12.32
2022-11-15T10:25:44.784Z,9.93
2022-11-15T10:28:16.156Z,10.98
2022-11-15T10:30:49.282Z,10.38
2022-11-15T10:33:31.080Z,10.55
2022-11-15T10:36:09.746Z,10.60
2022-11-15T10:38:51.672Z,11.38
2022-11-15T10:41:37.857Z,10.90
2022-11-15T10:44:07.507Z,10.60
2022-11-15T10:46:46.582Z,10.73
2022-11-15T10:49:28.845Z,8.93
2022-11-15T10:52:01.938Z,10.25
2022-11-15T10:54:35.886Z,11.30
2022-11-15T10:57:13.542Z,13.02
2022-11-15T10:59:40.284Z,12.43
2022-11-15T11:02:31.919Z,10.70
2022-11-15T11:04:58.651Z,13.48
2022-11-15T11:07:27.653Z,11.70
2022-11-15T11:10:00.118Z,9.27
2022-11-15T11:12:33.827Z,9.00
2022-11-15T11:15:02.066Z,9.57
2022-11-15T11:17:34.014Z,7.70
2022-11-15T11:20:38.302Z,10.77
2022-11-15T11:23:35.969Z,12.65
2022-11-15T11:26:05.697Z,7.93
2022-11-15T11:29:09.439Z,8.80
2022-11-15T11:32:07.093Z,14.52
2022-11-15T11:34:59.938Z,8.75
2022-11-15T11:37:44.981Z,7.03
2022-11-15T11:40:38.345Z,7.50
2022-11-15T11:43:04.917Z,6.75
2022-11-15T11:45:31.562Z,7.53
2022-11-15T11:48:27.072Z,6.03
2022-11-15T11:50:53.830Z,7.40
2022-11-15T11:53:32.627Z,7.00
2022-11-15T11:56:03.051Z,10.45
2022-11-15T11:58:35.840Z,8.40
2022-11-15T12:01:35.884Z,7.95
2022-11-15T12:04:17.678Z,7.45
2022-11-15T12:06:47.378Z,8.25
2022-11-15T12:09:22.005Z,8.80
2022-11-15T12:12:07.295Z,6.38
2022-11-15T12:14:38.099Z,8.77
2022-11-15T12:17:05.373Z,7.20
2022-11-15T12:19:32.027Z,6.85
2022-11-15T12:22:06.118Z,7.47
2022-11-15T12:24:39.968Z,7.25
2022-11-15T12:27:43.349Z,7.78
2022-11-15T12:30:17.111Z,10.80
2022-11-15T12:32:57.653Z,7.40
2022-11-15T12:35:39.130Z,7.30
2022-11-15T12:38:05.881Z,7.50
2022-11-15T12:40:34.410Z,8.52
2022-11-15T12:43:02.290Z,8.43
2022-11-15T12:45:37.925Z,8.05
2022-11-15T12:48:16.686Z,7.60
2022-11-15T12:50:52.963Z,7.97
2022-11-15T12:53:26.321Z,8.23
2022-11-15T12:56:17.621Z,7.87
2022-11-15T12:58:53.263Z,8.00
2022-11-15T13:01:32.295Z,7.07
2022-11-15T13:04:20.612Z,7.00
2022-11-15T13:06:49.103Z,5.72
2022-11-15T13:09:37.353Z,7.47
2022-11-15T13:12:10.624Z,9.80
2022-11-15T13:14:45.429Z,7.47
2022-11-15T13:17:21.141Z,8.05
2022-11-15T13:19:49.412Z,7.75
2022-11-15T13:22:34.464Z,9.48
2022-11-15T13:25:03.933Z,6.40
2022-11-15T13:27:30.539Z,6.18
2022-11-15T13:29:57.163Z,7.60
2022-11-15T13:32:23.899Z,6.65
2022-11-15T13:34:53.696Z,7.10
2022-11-15T13:37:23.350Z,7.78
2022-11-15T13:39:50.180Z,7.40
2022-11-15T13:42:20.665Z,6.85
2022-11-15T13:44:57.824Z,8.55
2022-11-15T13:47:28.053Z,9.18
2022-11-15T13:49:54.756Z,7.57
2022-11-15T13:52:21.330Z,9.40
2022-11-15T13:54:57.269Z,9.75
2022-11-15T13:57:29.056Z,9.40
2022-11-15T14:00:07.815Z,12.23
2022-11-15T14:02:35.775Z,9.98
2022-11-15T14:05:23.090Z,12.63
2022-11-15T14:07:58.131Z,10.60
2022-11-15T14:10:36.259Z,9.48
2022-11-15T14:13:03.630Z,10.07
2022-11-15T14:15:35.251Z,7.53
2022-11-15T14:18:02.120Z,7.97
2022-11-15T14:20:33.621Z,9.90
2022-11-15T14:23:05.188Z,7.43
2022-11-15T14:25:33.122Z,11.15
2022-11-15T14:28:17.471Z,8.70
2022-11-15T14:30:47.268Z,10.75
2022-11-15T14:33:36.810Z,29.83
2022-11-15T14:36:12.012Z,17.48
2022-11-15T14:38:38.688Z,27.25
2022-11-15T14:41:05.445Z,91.15
2022-11-15T14:43:32.082Z,47.05
2022-11-15T14:45:58.734Z,41.47
2022-11-15T14:48:25.337Z,26.92
2022-11-15T14:50:51.977Z,15.30
2022-11-15T14:53:18.758Z,12.82
2022-11-15T14:55:45.491Z,15.77
2022-11-15T14:58:12.223Z,14.80
2022-11-15T15:00:40.060Z,18.13
2022-11-15T15:03:06.921Z,13.82
2022-11-15T15:05:35.326Z,17.95
2022-11-15T15:08:02.260Z,16.48
2022-11-15T15:10:40.601Z,16.13
2022-11-15T15:13:22.693Z,56.28
2022-11-15T15:15:50.127Z,62.63
2022-11-15T15:18:16.940Z,30.88
2022-11-15T15:20:44.412Z,46.05
2022-11-15T15:23:18.633Z,20.42
2022-11-15T15:28:13.797Z,15.57
2022-11-15T15:30:40.563Z,25.23
2022-11-15T15:33:07.294Z,17.15
2022-11-15T15:35:34.944Z,18.73
2022-11-15T15:38:02.035Z,18.00
2022-11-15T15:40:30.163Z,16.58
2022-11-15T15:42:56.805Z,24.63
2022-11-15T15:45:23.496Z,22.45
2022-11-15T15:47:53.224Z,64.20
2022-11-15T15:50:26.433Z,27.20
2022-11-15T15:52:54.212Z,24.27
2022-11-15T15:55:21.004Z,26.55
2022-11-15T15:57:48.056Z,23.88
2022-11-15T16:00:15.046Z,24.33
2022-11-15T16:02:41.754Z,24.52
2022-11-15T16:05:09.082Z,20.88
2022-11-15T16:07:35.908Z,18.08
2022-11-15T16:10:04.167Z,19.95
2022-11-15T16:12:34.818Z,20.58
2022-11-15T16:15:01.963Z,27.83
2022-11-15T16:17:34.263Z,43.90
2022-11-15T16:20:01.256Z,32.50
2022-11-15T16:22:29.635Z,34.30
2022-11-15T16:24:56.814Z,58.05
2022-11-15T16:27:23.558Z,44.95
2022-11-15T16:29:50.363Z,57.47
2022-11-15T16:32:17.342Z,50.20
2022-11-15T16:34:48.707Z,49.67
2022-11-15T16:37:24.731Z,60.25
2022-11-15T16:39:51.423Z,49.88
2022-11-15T16:42:18.121Z,37.72
2022-11-15T16:44:44.989Z,35.60
2022-11-15T16:47:16.939Z,32.30
2022-11-15T16:49:43.928Z,31.40
2022-11-15T16:52:10.600Z,35.45
2022-11-15T16:54:37.231Z,32.53
2022-11-15T16:57:03.952Z,32.65
2022-11-15T16:59:38.060Z,41.40
2022-11-15T17:02:05.762Z,41.40
2022-11-15T17:04:33.899Z,46.17
2022-11-15T17:07:00.611Z,49.88
2022-11-15T17:09:27.314Z,40.72
2022-11-15T17:11:54.100Z,44.85
2022-11-15T17:14:20.743Z,50.00
2022-11-15T17:16:47.659Z,49.50
2022-11-15T17:19:18.420Z,47.88
2022-11-15T17:21:45.293Z,41.75
2022-11-15T17:24:12.062Z,42.45
2022-11-15T17:26:40.831Z,40.85
2022-11-15T17:29:08.144Z,44.83
2022-11-15T17:31:35.828Z,43.13
2022-11-15T17:34:02.713Z,42.85
2022-11-15T17:36:29.371Z,37.60
2022-11-15T17:38:59.473Z,45.65
2022-11-15T17:41:27.329Z,53.53
2022-11-15T17:43:54.015Z,97.57
2022-11-15T17:46:21.140Z,91.57
2022-11-15T17:48:48.376Z,49.58
2022-11-15T17:51:16.648Z,55.25
2022-11-15T17:53:45.037Z,41.40
2022-11-15T17:56:13.152Z,43.70
2022-11-15T17:58:39.892Z,45.70
2022-11-15T18:01:16.677Z,45.90
2022-11-15T18:03:43.445Z,32.72
2022-11-15T18:06:10.358Z,28.17
2022-11-15T18:08:40.180Z,42.70
2022-11-15T18:11:08.014Z,48.33
2022-11-15T18:13:36.200Z,46.38
2022-11-15T18:16:04.586Z,42.22
2022-11-15T18:18:34.787Z,60.30
2022-11-15T18:21:20.178Z,46.28
2022-11-15T18:23:46.894Z,42.42
2022-11-15T18:26:15.046Z,49.55
2022-11-15T18:28:43.074Z,53.47
2022-11-15T18:31:19.865Z,69.32
2022-11-15T18:33:46.613Z,59.65
2022-11-15T18:36:15.075Z,69.45
2022-11-15T18:38:41.741Z,72.95
2022-11-15T18:41:10.597Z,80.40
2022-11-15T18:43:37.879Z,69.93
2022-11-15T18:46:09.152Z,69.93
2022-11-15T18:48:37.300Z,61.15
2022-11-15T18:51:05.459Z,56.55
2022-11-15T18:53:32.746Z,49.95
2022-11-15T18:56:16.798Z,69.90
2022-11-15T18:58:45.156Z,63.60
2022-11-15T19:01:14.184Z,55.63
2022-11-15T19:03:43.118Z,62.85
2022-11-15T19:06:16.663Z,66.45
2022-11-15T19:08:44.581Z,72.10
2022-11-15T19:11:12.977Z,70.15
2022-11-15T19:13:39.775Z,78.13
2022-11-15T19:16:07.058Z,74.38
2022-11-15T19:18:33.814Z,77.38
2022-11-15T19:21:04.680Z,97.03
2022-11-15T19:23:38.203Z,56.60
2022-11-15T19:26:05.851Z,46.13
2022-11-15T19:28:32.872Z,60.83
2022-11-15T19:31:13.049Z,58.83
2022-11-15T19:33:40.710Z,61.17
2022-11-15T19:36:13.457Z,50.92
2022-11-15T19:38:40.381Z,53.22
2022-11-15T19:41:08.646Z,56.47
2022-11-15T19:43:35.690Z,66.47
2022-11-15T19:46:03.749Z,61.55
2022-11-15T19:48:31.655Z,56.47
2022-11-15T19:51:05.515Z,53.97
2022-11-15T19:53:35.342Z,68.18
2022-11-15T19:56:04.531Z,63.72
2022-11-15T19:58:31.347Z,62.67
2022-11-15T20:01:03.092Z,61.35
2022-11-15T20:03:31.017Z,72.72
2022-11-15T20:06:06.099Z,68.78
2022-11-15T20:08:33.220Z,67.47
2022-11-15T20:11:00.250Z,64.05
2022-11-15T20:13:27.154Z,48.35
2022-11-15T20:15:54.118Z,50.20
2022-11-15T20:18:21.415Z,48.83
2022-11-15T20:20:48.150Z,42.25
2022-11-15T20:23:14.782Z,46.10
2022-11-15T20:25:45.043Z,41.92
2022-11-15T20:28:15.771Z,55.28
2022-11-15T20:30:46.021Z,44.90
2022-11-15T20:33:13.875Z,31.65
2022-11-15T20:35:40.937Z,39.25
2022-11-15T20:38:08.093Z,31.73
2022-11-15T20:40:34.790Z,33.13
2022-11-15T20:43:01.377Z,32.35
2022-11-15T20:45:28.031Z,31.10
2022-11-15T20:47:55.846Z,33.58
2022-11-15T20:50:41.635Z,34.85
2022-11-15T20:53:09.162Z,37.45
2022-11-15T20:55:49.475Z,28.45
2022-11-15T20:58:16.792Z,31.83
2022-11-15T21:00:44.853Z,25.38
2022-11-15T21:03:13.489Z,24.98
2022-11-15T21:05:41.648Z,26.65
2022-11-15T21:08:08.405Z,23.73
2022-11-15T21:10:53.533Z,27.35
2022-11-15T21:13:20.361Z,26.88
2022-11-15T21:15:47.218Z,36.63
2022-11-15T21:18:14.160Z,22.83
2022-11-15T21:20:41.438Z,18.77
2022-11-15T21:23:08.200Z,26.73
2022-11-15T21:25:34.917Z,22.25
2022-11-15T21:28:01.640Z,21.65
2022-11-15T21:30:28.283Z,19.95
2022-11-15T21:32:55.009Z,20.10
2022-11-15T21:35:22.612Z,18.60
2022-11-15T21:37:54.974Z,34.90
2022-11-15T21:42:49.765Z,35.50
2022-11-15T21:45:16.577Z,27.10
2022-11-15T21:47:45.990Z,21.42
2022-11-15T21:50:13.350Z,21.20
2022-11-15T21:52:40.824Z,22.58
2022-11-15T21:55:08.434Z,24.30
2022-11-15T21:57:35.080Z,24.98
2022-11-15T22:00:20.683Z,28.20
2022-11-15T22:02:47.264Z,26.02
2022-11-15T22:05:13.917Z,25.23
2022-11-15T22:07:40.621Z,23.27
2022-11-15T22:10:07.612Z,19.08
2022-11-15T22:12:34.226Z,20.45
2022-11-15T22:15:00.888Z,23.52
2022-11-15T22:17:47.503Z,22.40
2022-11-15T22:20:37.716Z,19.23
2022-11-15T22:23:02.820Z,24.05
2022-11-15T22:25:29.569Z,22.15
2022-11-15T22:27:56.290Z,21.77
2022-11-15T22:30:22.993Z,21.80
2022-11-15T22:32:49.769Z,19.73
2022-11-15T22:35:16.574Z,17.05
2022-11-15T22:37:43.328Z,24.40
2022-11-15T22:40:10.408Z,18.98
2022-11-15T22:42:37.064Z,24.02
2022-11-15T22:45:04.250Z,19.30
2022-11-15T22:47:31.071Z,16.88
2022-11-15T22:49:58.009Z,19.52
2022-11-15T22:52:24.664Z,20.10
2022-11-15T22:54:51.452Z,21.05
2022-11-15T22:57:18.161Z,19.58
2022-11-15T22:59:45.009Z,18.50
2022-11-15T23:02:11.741Z,22.40
2022-11-15T23:04:38.411Z,22.02
2022-11-15T23:07:05.102Z,18.10
2022-11-15T23:09:31.889Z,15.85
2022-11-15T23:12:17.116Z,14.38
2022-11-15T23:14:43.773Z,19.60
2022-11-15T23:17:10.477Z,22.13
2022-11-15T23:19:37.125Z,23.92
2022-11-15T23:22:22.389Z,21.85
2022-11-15T23:24:49.066Z,17.27
2022-11-15T23:27:19.851Z,16.73
2022-11-15T23:30:05.771Z,18.67
2022-11-15T23:32:50.875Z,15.30
2022-11-15T23:35:17.583Z,19.98
2022-11-15T23:37:44.257Z,18.88
2022-11-15T23:40:11.671Z,17.33
2022-11-15T23:42:38.253Z,16.70
2022-11-15T23:45:05.696Z,21.63
2022-11-15T23:47:32.407Z,17.98
2022-11-15T23:49:59.067Z,20.38
2022-11-15T23:52:25.710Z,13.20
2022-11-15T23:54:52.488Z,16.67
2022-11-15T23:57:19.237Z,19.42
2022-11-15T23:59:45.882Z,18.38
